Terminal Aerodrome Forecast
Issued by NWS

Home | Current Version | Previous Version | Text Only | Print | Product List | Glossary On
Versions: 1 2 3 4 5 6 7 8 9 10 11 12 13 14 15
000
FTUS46 KSEW 250500
TAFPAE
TAF
KPAE 250526Z 2506/2606 VRB03KT P6SM -SHRA SCT020 BKN035 OVC050
      TEMPO 2506/2510 4SM SHRA BR BKN020 OVC035
     FM251400 VRB03KT P6SM BKN022 OVC035
     FM251800 25005KT P6SM FEW030 BKN045 BKN100
     FM260200 VRB03KT P6SM SCT050 SCT100=

USA.gov is the U.S. government's official web portal to all federal, state and local government web resources and services.